createdAt,value
2023-04-09T00:03:19.154Z,12.68
2023-04-09T00:07:22.515Z,11.27
2023-04-09T00:11:29.768Z,13.13
2023-04-09T00:15:32.949Z,12.10
2023-04-09T00:19:37.312Z,12.98
2023-04-09T00:23:40.011Z,11.65
2023-04-09T00:27:45.300Z,13.52
2023-04-09T00:31:48.237Z,12.23
2023-04-09T00:35:54.840Z,11.93
2023-04-09T00:39:57.743Z,13.13
2023-04-09T00:44:01.176Z,11.80
2023-04-09T00:48:04.568Z,12.68
2023-04-09T00:52:12.539Z,12.57
2023-04-09T00:56:18.862Z,12.35
2023-04-09T01:00:21.878Z,12.40
2023-04-09T01:04:25.993Z,12.32
2023-04-09T01:08:38.466Z,12.05
2023-04-09T01:12:51.270Z,12.85
2023-04-09T01:17:01.812Z,11.15
2023-04-09T01:21:08.563Z,11.73
2023-04-09T01:25:30.219Z,11.93
2023-04-09T01:29:43.648Z,11.05
2023-04-09T01:33:47.306Z,10.82
2023-04-09T01:37:51.239Z,10.98
2023-04-09T01:41:58.195Z,10.27
2023-04-09T01:46:03.797Z,11.10
2023-04-09T01:50:07.966Z,10.52
2023-04-09T01:54:11.330Z,10.90
2023-04-09T01:58:14.984Z,12.73
2023-04-09T02:02:24.358Z,11.40
2023-04-09T02:06:36.548Z,12.48
2023-04-09T02:10:42.187Z,10.73
2023-04-09T02:14:48.104Z,11.13
2023-04-09T02:18:57.391Z,11.40
2023-04-09T02:23:00.671Z,11.80
2023-04-09T02:27:04.246Z,10.63
2023-04-09T02:31:07.362Z,11.13
2023-04-09T02:39:14.930Z,11.50
2023-04-09T02:43:18.433Z,10.38
2023-04-09T02:47:26.966Z,10.93
2023-04-09T02:51:31.770Z,10.07
2023-04-09T02:55:34.714Z,10.90
2023-04-09T02:59:39.475Z,11.80
2023-04-09T03:03:43.272Z,11.30
2023-04-09T03:07:48.385Z,12.10
2023-04-09T03:11:51.608Z,11.05
2023-04-09T03:15:55.045Z,12.35
2023-04-09T03:19:58.425Z,10.27
2023-04-09T03:24:04.239Z,11.63
2023-04-09T03:28:07.298Z,11.82
2023-04-09T03:32:10.399Z,12.15
2023-04-09T03:36:13.486Z,12.77
2023-04-09T03:40:18.021Z,12.50
2023-04-09T03:44:21.051Z,11.85
2023-04-09T03:48:23.870Z,12.38
2023-04-09T03:52:26.727Z,10.82
2023-04-09T03:56:31.430Z,12.05
2023-04-09T04:00:34.440Z,11.30
2023-04-09T04:04:37.338Z,12.40
2023-04-09T04:08:40.308Z,13.90
2023-04-09T04:16:47.685Z,11.80
2023-04-09T04:20:51.220Z,14.30
2023-04-09T04:24:54.398Z,14.48
2023-04-09T04:29:01.224Z,13.50
2023-04-09T04:33:04.373Z,11.65
2023-04-09T04:37:07.208Z,12.65
2023-04-09T04:41:12.085Z,14.18
2023-04-09T04:45:16.837Z,12.43
2023-04-09T04:49:19.807Z,12.77
2023-04-09T04:53:26.613Z,13.05
2023-04-09T04:57:33.098Z,12.20
2023-04-09T05:01:37.537Z,13.23
2023-04-09T05:05:40.865Z,12.43
2023-04-09T05:09:44.596Z,13.43
2023-04-09T05:13:47.721Z,12.52
2023-04-09T05:17:52.146Z,12.90
2023-04-09T05:21:54.995Z,12.45
2023-04-09T05:25:57.942Z,12.93
2023-04-09T05:30:01.189Z,13.25
2023-04-09T05:34:06.494Z,13.07
2023-04-09T05:38:09.499Z,14.00
2023-04-09T05:42:12.503Z,14.20
2023-04-09T05:46:18.588Z,14.93
2023-04-09T05:50:28.260Z,14.02
2023-04-09T05:54:31.570Z,13.57
2023-04-09T05:58:37.578Z,14.52
2023-04-09T06:02:42.902Z,12.73
2023-04-09T06:06:47.293Z,12.20
2023-04-09T06:10:50.249Z,11.82
2023-04-09T06:14:53.405Z,12.27
2023-04-09T06:18:57.205Z,13.10
2023-04-09T06:23:01.398Z,12.80
2023-04-09T06:27:04.627Z,12.57
2023-04-09T06:31:08.865Z,12.25
2023-04-09T06:35:11.954Z,12.30
2023-04-09T06:39:16.545Z,10.88
2023-04-09T06:43:24.376Z,10.32
2023-04-09T06:47:27.294Z,10.73
2023-04-09T06:51:32.195Z,11.00
2023-04-09T06:55:36.184Z,10.82
2023-04-09T06:59:39.005Z,10.20
2023-04-09T07:07:45.342Z,10.40
2023-04-09T07:11:49.863Z,9.65
2023-04-09T07:16:00.936Z,10.00
2023-04-09T07:20:04.264Z,9.15
2023-04-09T07:24:08.005Z,10.13
2023-04-09T07:28:12.770Z,11.25
2023-04-09T07:32:16.138Z,10.00
2023-04-09T07:36:21.560Z,9.45
2023-04-09T07:40:24.328Z,8.98
2023-04-09T07:48:32.000Z,9.20
2023-04-09T07:52:34.736Z,9.70
2023-04-09T08:00:41.628Z,9.95
2023-04-09T08:04:45.964Z,10.25
2023-04-09T08:08:52.517Z,9.07
2023-04-09T08:12:55.923Z,8.50
2023-04-09T08:17:01.689Z,7.82
2023-04-09T08:21:06.763Z,8.27
2023-04-09T08:25:10.270Z,7.57
2023-04-09T08:29:14.633Z,8.68
2023-04-09T08:33:18.236Z,8.25
2023-04-09T08:37:21.422Z,7.07
2023-04-09T08:41:25.870Z,7.78
2023-04-09T08:45:29.224Z,7.28
2023-04-09T08:49:35.743Z,7.47
2023-04-09T08:53:40.166Z,6.75
2023-04-09T08:57:43.835Z,7.60
2023-04-09T09:01:48.179Z,7.80
2023-04-09T09:05:52.850Z,7.05
2023-04-09T09:09:58.226Z,7.22
2023-04-09T09:14:06.259Z,7.47
2023-04-09T09:18:09.385Z,6.97
2023-04-09T09:22:16.393Z,7.18
2023-04-09T09:26:23.216Z,7.60
2023-04-09T09:30:27.605Z,7.05
2023-04-09T09:34:30.640Z,7.32
2023-04-09T09:42:37.807Z,6.47
2023-04-09T09:46:42.741Z,6.22
2023-04-09T09:50:49.136Z,6.30
2023-04-09T09:54:54.162Z,6.80
2023-04-09T09:59:05.232Z,6.53
2023-04-09T10:03:16.871Z,6.60
2023-04-09T10:07:22.484Z,6.97
2023-04-09T10:11:27.586Z,6.82
2023-04-09T10:15:31.313Z,7.13
2023-04-09T10:19:44.668Z,6.30
2023-04-09T10:23:51.010Z,7.78
2023-04-09T10:28:02.945Z,6.95
2023-04-09T10:32:07.267Z,6.50
2023-04-09T10:36:12.509Z,5.82
2023-04-09T10:40:20.741Z,6.45
2023-04-09T10:44:28.849Z,6.32
2023-04-09T10:48:34.611Z,5.57
2023-04-09T10:52:42.110Z,6.65
2023-04-09T10:57:13.874Z,6.53
2023-04-09T11:01:24.410Z,7.30
2023-04-09T11:05:32.747Z,7.32
2023-04-09T11:09:36.661Z,7.60
2023-04-09T11:13:42.226Z,6.55
2023-04-09T11:17:47.197Z,10.70
2023-04-09T11:21:51.626Z,12.88
2023-04-09T11:25:55.426Z,9.30
2023-04-09T11:29:58.369Z,8.55
2023-04-09T11:34:05.631Z,8.90
2023-04-09T11:38:09.782Z,8.73
2023-04-09T11:42:15.571Z,8.20
2023-04-09T11:46:20.659Z,8.05
2023-04-09T11:50:26.996Z,8.10
2023-04-09T11:54:33.797Z,9.48
2023-04-09T11:58:37.125Z,7.97
2023-04-09T12:02:43.526Z,9.10
2023-04-09T12:06:48.515Z,8.32
2023-04-09T12:10:53.391Z,9.35
2023-04-09T12:14:59.020Z,9.35
2023-04-09T12:19:02.854Z,9.30
2023-04-09T12:23:10.803Z,9.20
2023-04-09T12:27:13.372Z,8.27
2023-04-09T12:31:17.348Z,9.18
2023-04-09T12:35:20.384Z,8.85
2023-04-09T12:39:24.794Z,8.57
2023-04-09T12:43:28.085Z,9.13
2023-04-09T12:47:31.025Z,7.90
2023-04-09T12:51:34.413Z,8.70
2023-04-09T12:55:43.087Z,7.90
2023-04-09T12:59:46.130Z,7.72
2023-04-09T13:03:49.419Z,7.63
2023-04-09T13:07:52.855Z,7.15
2023-04-09T13:11:59.524Z,7.32
2023-04-09T13:16:02.552Z,6.75
2023-04-09T13:20:07.101Z,7.00
2023-04-09T13:24:10.077Z,6.68
2023-04-09T13:28:15.822Z,6.88
2023-04-09T13:32:21.221Z,6.72
2023-04-09T13:36:24.606Z,6.38
2023-04-09T13:40:27.744Z,6.22
2023-04-09T13:44:33.626Z,5.45
2023-04-09T13:48:36.580Z,5.68
2023-04-09T13:52:39.683Z,6.32
2023-04-09T13:56:43.004Z,5.68
2023-04-09T14:00:47.512Z,7.10
2023-04-09T14:04:52.806Z,7.35
2023-04-09T14:08:56.008Z,7.18
2023-04-09T14:12:58.850Z,7.00
2023-04-09T14:17:03.663Z,7.50
2023-04-09T14:21:09.852Z,6.82
2023-04-09T14:25:13.767Z,6.20
2023-04-09T14:29:17.438Z,6.57
2023-04-09T14:33:25.120Z,6.60
2023-04-09T14:37:28.476Z,6.72
2023-04-09T14:41:34.334Z,7.10
2023-04-09T14:45:37.356Z,7.82
2023-04-09T14:49:41.851Z,6.93
2023-04-09T14:53:47.184Z,6.82
2023-04-09T14:57:50.243Z,6.75
2023-04-09T15:01:53.947Z,7.18
2023-04-09T15:05:58.589Z,6.13
2023-04-09T15:10:04.953Z,6.45
2023-04-09T15:14:10.080Z,6.50
2023-04-09T15:18:12.824Z,6.47
2023-04-09T15:26:19.691Z,5.90
2023-04-09T15:30:22.614Z,5.47
2023-04-09T15:34:26.380Z,5.60
2023-04-09T15:38:32.782Z,5.88
2023-04-09T15:42:38.457Z,6.20
2023-04-09T15:46:41.353Z,6.43
2023-04-09T15:50:46.636Z,5.95
2023-04-09T15:54:54.205Z,6.25
2023-04-09T15:58:57.760Z,6.10
2023-04-09T16:03:00.697Z,6.60
2023-04-09T16:07:04.746Z,6.40
2023-04-09T16:11:09.850Z,7.00
2023-04-09T16:15:14.418Z,6.45
2023-04-09T16:19:18.382Z,5.95
2023-04-09T16:23:24.160Z,7.03
2023-04-09T16:27:28.762Z,7.55
2023-04-09T16:31:34.711Z,6.50
2023-04-09T16:35:40.723Z,7.75
2023-04-09T16:39:45.425Z,8.10
2023-04-09T16:43:56.550Z,6.82
2023-04-09T16:47:59.662Z,8.32
2023-04-09T16:52:02.993Z,7.72
2023-04-09T16:56:08.618Z,7.25
2023-04-09T17:00:17.601Z,7.85
2023-04-09T17:04:20.474Z,9.13
2023-04-09T17:08:24.590Z,8.55
2023-04-09T17:12:28.131Z,9.57
2023-04-09T17:16:32.721Z,10.65
2023-04-09T17:20:38.688Z,10.52
2023-04-09T17:24:42.879Z,11.52
2023-04-09T17:28:46.893Z,12.13
2023-04-09T17:32:52.940Z,18.73
2023-04-09T17:37:01.064Z,11.52
2023-04-09T17:41:06.389Z,10.77
2023-04-09T17:45:12.005Z,11.80
2023-04-09T17:49:16.463Z,11.90
2023-04-09T17:53:19.816Z,13.57
2023-04-09T18:01:25.741Z,15.68
2023-04-09T18:05:30.508Z,17.90
2023-04-09T18:09:35.562Z,17.85
2023-04-09T18:13:38.723Z,18.05
2023-04-09T18:17:44.826Z,16.73
2023-04-09T18:21:49.335Z,18.27
2023-04-09T18:25:52.479Z,17.75
2023-04-09T18:29:56.161Z,16.77
2023-04-09T18:33:59.201Z,15.88
2023-04-09T18:42:10.258Z,15.75
2023-04-09T18:46:13.827Z,16.45
2023-04-09T18:54:22.162Z,15.93
2023-04-09T18:58:27.236Z,17.17
2023-04-09T19:02:33.283Z,17.08
2023-04-09T19:06:38.001Z,15.20
2023-04-09T19:10:44.011Z,15.50
2023-04-09T19:14:49.722Z,16.05
2023-04-09T19:18:53.141Z,14.32
2023-04-09T19:22:59.542Z,16.75
2023-04-09T19:27:10.157Z,15.93
2023-04-09T19:31:16.868Z,14.30
2023-04-09T19:35:20.902Z,14.07
2023-04-09T19:39:23.747Z,14.38
2023-04-09T19:43:30.009Z,13.65
2023-04-09T19:47:35.679Z,14.02
2023-04-09T19:51:38.904Z,15.30
2023-04-09T19:55:44.827Z,14.18
2023-04-09T19:59:50.348Z,13.38
2023-04-09T20:03:54.056Z,14.38
2023-04-09T20:07:57.686Z,13.73
2023-04-09T20:12:04.515Z,13.38
2023-04-09T20:16:09.031Z,13.63
2023-04-09T20:20:13.394Z,13.75
2023-04-09T20:24:18.262Z,13.63
2023-04-09T20:28:21.307Z,14.35
2023-04-09T20:36:28.603Z,13.13
2023-04-09T20:40:32.204Z,12.98
2023-04-09T20:44:35.323Z,16.00
2023-04-09T20:52:43.484Z,14.93
2023-04-09T20:56:46.412Z,14.40
2023-04-09T21:04:55.400Z,13.77
2023-04-09T21:08:59.776Z,15.75
2023-04-09T21:13:06.886Z,15.00
2023-04-09T21:17:09.961Z,15.57
2023-04-09T21:21:15.034Z,14.50
2023-04-09T21:25:20.600Z,15.23
2023-04-09T21:29:23.875Z,14.63
2023-04-09T21:33:28.548Z,15.55
2023-04-09T21:37:39.574Z,12.93
2023-04-09T21:41:42.525Z,14.50
2023-04-09T21:45:45.718Z,15.45
2023-04-09T21:49:50.392Z,14.27
2023-04-09T21:54:03.591Z,19.55
2023-04-09T21:58:07.318Z,15.55
2023-04-09T22:02:10.980Z,13.63
2023-04-09T22:06:14.626Z,12.50
2023-04-09T22:10:19.406Z,12.80
2023-04-09T22:14:26.529Z,14.40
2023-04-09T22:18:30.075Z,14.90
2023-04-09T22:22:33.267Z,15.02
2023-04-09T22:26:39.354Z,13.55
2023-04-09T22:30:42.807Z,15.00
2023-04-09T22:34:45.837Z,15.48
2023-04-09T22:38:51.965Z,15.13
2023-04-09T22:42:58.741Z,15.75
2023-04-09T22:47:01.841Z,16.63
2023-04-09T22:51:08.085Z,16.42
2023-04-09T22:55:11.566Z,17.55
2023-04-09T22:59:37.255Z,15.07
2023-04-09T23:03:42.625Z,15.15
2023-04-09T23:07:47.048Z,15.18
2023-04-09T23:11:50.639Z,25.27
2023-04-09T23:15:55.176Z,14.23
2023-04-09T23:20:00.124Z,14.10
2023-04-09T23:24:02.999Z,16.23
2023-04-09T23:28:06.296Z,14.40
2023-04-09T23:32:10.990Z,16.75
2023-04-09T23:36:16.478Z,26.13
2023-04-09T23:40:19.474Z,12.27
2023-04-09T23:44:26.551Z,14.73
2023-04-09T23:48:31.076Z,15.55
2023-04-09T23:52:39.491Z,14.98
2023-04-09T23:56:42.641Z,13.70
